sensor_id;sensor_type;location;lat;lon;timestamp;pressure;altitude;pressure_sealevel;temperature;humidity
60240;BME280;46102;39.012;-7.064;2023-01-28T00:00:07;98819.03;;;6.02;52.17
60240;BME280;46102;39.012;-7.064;2023-01-28T00:02:11;98815.78;;;6.00;52.49
60240;BME280;46102;39.012;-7.064;2023-01-28T00:04:13;98817.97;;;6.03;52.50
60240;BME280;46102;39.012;-7.064;2023-01-28T00:06:15;98808.44;;;5.96;52.25
60240;BME280;46102;39.012;-7.064;2023-01-28T00:08:15;98810.09;;;5.97;52.31
60240;BME280;46102;39.012;-7.064;2023-01-28T00:10:16;98808.72;;;5.99;52.11
60240;BME280;46102;39.012;-7.064;2023-01-28T00:12:17;98811.16;;;5.91;52.25
60240;BME280;46102;39.012;-7.064;2023-01-28T00:14:19;98804.16;;;5.79;52.65
60240;BME280;46102;39.012;-7.064;2023-01-28T00:16:20;98803.03;;;5.80;52.60
60240;BME280;46102;39.012;-7.064;2023-01-28T00:18:27;98805.19;;;5.89;51.75
60240;BME280;46102;39.012;-7.064;2023-01-28T00:20:28;98801.63;;;5.93;51.66
60240;BME280;46102;39.012;-7.064;2023-01-28T00:22:29;98809.25;;;5.91;51.58
60240;BME280;46102;39.012;-7.064;2023-01-28T00:24:30;98812.00;;;5.86;51.67
60240;BME280;46102;39.012;-7.064;2023-01-28T00:26:30;98808.22;;;5.82;51.80
60240;BME280;46102;39.012;-7.064;2023-01-28T00:28:31;98812.03;;;5.76;52.24
60240;BME280;46102;39.012;-7.064;2023-01-28T00:30:32;98815.91;;;5.70;52.61
60240;BME280;46102;39.012;-7.064;2023-01-28T00:32:33;98816.22;;;5.63;52.44
60240;BME280;46102;39.012;-7.064;2023-01-28T00:34:34;98821.91;;;5.67;52.29
60240;BME280;46102;39.012;-7.064;2023-01-28T00:36:34;98821.88;;;5.72;52.44
60240;BME280;46102;39.012;-7.064;2023-01-28T00:38:40;98839.34;;;5.66;52.03
60240;BME280;46102;39.012;-7.064;2023-01-28T00:40:42;98832.00;;;5.61;52.37
60240;BME280;46102;39.012;-7.064;2023-01-28T00:42:42;98835.25;;;5.63;52.37
60240;BME280;46102;39.012;-7.064;2023-01-28T00:44:43;98825.44;;;5.62;52.76
60240;BME280;46102;39.012;-7.064;2023-01-28T00:46:44;98832.53;;;5.58;52.84
60240;BME280;46102;39.012;-7.064;2023-01-28T00:48:45;98823.84;;;5.61;52.87
60240;BME280;46102;39.012;-7.064;2023-01-28T00:50:46;98824.66;;;5.61;52.50
60240;BME280;46102;39.012;-7.064;2023-01-28T00:52:47;98829.00;;;5.57;52.34
60240;BME280;46102;39.012;-7.064;2023-01-28T00:54:48;98827.09;;;5.58;52.70
60240;BME280;46102;39.012;-7.064;2023-01-28T00:56:49;98820.31;;;5.55;52.32
60240;BME280;46102;39.012;-7.064;2023-01-28T00:58:50;98813.53;;;5.48;52.48
60240;BME280;46102;39.012;-7.064;2023-01-28T01:00:51;98813.81;;;5.41;52.79
60240;BME280;46102;39.012;-7.064;2023-01-28T01:02:52;98808.66;;;5.39;52.63
60240;BME280;46102;39.012;-7.064;2023-01-28T01:04:53;98813.25;;;5.44;52.35
60240;BME280;46102;39.012;-7.064;2023-01-28T01:07:00;98808.63;;;5.45;52.49
60240;BME280;46102;39.012;-7.064;2023-01-28T01:09:02;98811.66;;;5.43;52.49
60240;BME280;46102;39.012;-7.064;2023-01-28T01:11:03;98811.09;;;5.46;52.25
60240;BME280;46102;39.012;-7.064;2023-01-28T01:13:06;98807.78;;;5.49;52.37
60240;BME280;46102;39.012;-7.064;2023-01-28T01:15:09;98813.25;;;5.49;51.80
60240;BME280;46102;39.012;-7.064;2023-01-28T01:17:10;98813.25;;;5.49;52.18
60240;BME280;46102;39.012;-7.064;2023-01-28T01:19:12;98821.97;;;5.46;52.11
60240;BME280;46102;39.012;-7.064;2023-01-28T01:21:14;98827.13;;;5.42;52.25
60240;BME280;46102;39.012;-7.064;2023-01-28T01:23:18;98823.34;;;5.33;52.26
60240;BME280;46102;39.012;-7.064;2023-01-28T01:25:19;98825.53;;;5.36;51.92
60240;BME280;46102;39.012;-7.064;2023-01-28T01:27:21;98818.72;;;5.39;51.71
60240;BME280;46102;39.012;-7.064;2023-01-28T01:29:22;98819.03;;;5.32;52.40
60240;BME280;46102;39.012;-7.064;2023-01-28T01:31:23;98805.69;;;5.26;52.83
60240;BME280;46102;39.012;-7.064;2023-01-28T01:33:24;98803.53;;;5.22;52.79
60240;BME280;46102;39.012;-7.064;2023-01-28T01:35:25;98816.06;;;5.18;52.43
60240;BME280;46102;39.012;-7.064;2023-01-28T01:37:27;98823.66;;;5.21;53.13
60240;BME280;46102;39.012;-7.064;2023-01-28T01:39:27;98815.25;;;5.18;52.92
60240;BME280;46102;39.012;-7.064;2023-01-28T01:41:31;98829.38;;;5.25;53.25
60240;BME280;46102;39.012;-7.064;2023-01-28T01:43:50;98823.13;;;5.19;52.81
60240;BME280;46102;39.012;-7.064;2023-01-28T01:45:58;98824.75;;;5.15;53.18
60240;BME280;46102;39.012;-7.064;2023-01-28T01:50:04;98819.88;;;4.97;54.05
60240;BME280;46102;39.012;-7.064;2023-01-28T01:52:09;98820.72;;;4.92;53.76
60240;BME280;46102;39.012;-7.064;2023-01-28T01:54:12;98829.97;;;4.96;53.93
60240;BME280;46102;39.012;-7.064;2023-01-28T01:56:16;98816.91;;;4.88;54.68
60240;BME280;46102;39.012;-7.064;2023-01-28T01:58:22;98821.25;;;4.79;55.12
60240;BME280;46102;39.012;-7.064;2023-01-28T02:00:24;98828.06;;;4.76;54.65
60240;BME280;46102;39.012;-7.064;2023-01-28T02:02:25;98825.91;;;4.73;54.52
60240;BME280;46102;39.012;-7.064;2023-01-28T02:04:28;98831.06;;;4.70;54.89
60240;BME280;46102;39.012;-7.064;2023-01-28T02:06:31;98821.84;;;4.71;55.06
60240;BME280;46102;39.012;-7.064;2023-01-28T02:08:33;98811.75;;;4.61;54.69
60240;BME280;46102;39.012;-7.064;2023-01-28T02:10:34;98806.31;;;4.61;54.59
60240;BME280;46102;39.012;-7.064;2023-01-28T02:12:42;98820.44;;;4.63;54.75
60240;BME280;46102;39.012;-7.064;2023-01-28T02:14:51;98820.19;;;4.65;54.89
60240;BME280;46102;39.012;-7.064;2023-01-28T02:16:54;98818.03;;;4.67;55.24
60240;BME280;46102;39.012;-7.064;2023-01-28T02:18:55;98815.03;;;4.58;54.68
60240;BME280;46102;39.012;-7.064;2023-01-28T02:26:03;98820.19;;;4.59;54.84
60240;BME280;46102;39.012;-7.064;2023-01-28T02:30:19;98819.38;;;4.59;55.48
60240;BME280;46102;39.012;-7.064;2023-01-28T02:34:36;98819.38;;;4.59;55.27
60240;BME280;46102;39.012;-7.064;2023-01-28T02:38:48;98807.44;;;4.55;54.96
60240;BME280;46102;39.012;-7.064;2023-01-28T02:40:53;98803.63;;;4.51;55.29
60240;BME280;46102;39.012;-7.064;2023-01-28T02:43:02;98804.16;;;4.58;54.34
60240;BME280;46102;39.012;-7.064;2023-01-28T02:45:16;98807.41;;;4.50;54.98
60240;BME280;46102;39.012;-7.064;2023-01-28T02:47:18;98791.94;;;4.50;54.85
60240;BME280;46102;39.012;-7.064;2023-01-28T02:54:11;98789.22;;;4.55;54.46
60240;BME280;46102;39.012;-7.064;2023-01-28T03:00:48;98783.78;;;4.50;54.67
60240;BME280;46102;39.012;-7.064;2023-01-28T03:05:21;98777.25;;;4.56;55.17
60240;BME280;46102;39.012;-7.064;2023-01-28T03:07:26;98792.19;;;4.54;54.65
60240;BME280;46102;39.012;-7.064;2023-01-28T03:09:31;98796.00;;;4.53;54.46
60240;BME280;46102;39.012;-7.064;2023-01-28T03:11:45;98789.47;;;4.54;54.87
60240;BME280;46102;39.012;-7.064;2023-01-28T03:14:07;98794.91;;;4.54;55.14
60240;BME280;46102;39.012;-7.064;2023-01-28T03:16:28;98793.00;;;4.54;55.55
60240;BME280;46102;39.012;-7.064;2023-01-28T03:18:50;98803.34;;;4.47;55.06
60240;BME280;46102;39.012;-7.064;2023-01-28T03:21:24;98798.72;;;4.53;55.60
60240;BME280;46102;39.012;-7.064;2023-01-28T03:24:05;98814.47;;;4.51;55.08
60240;BME280;46102;39.012;-7.064;2023-01-28T03:26:27;98814.75;;;4.44;55.39
60240;BME280;46102;39.012;-7.064;2023-01-28T03:28:51;98815.84;;;4.53;55.35
60240;BME280;46102;39.012;-7.064;2023-01-28T03:31:15;98815.31;;;4.62;55.19
60240;BME280;46102;39.012;-7.064;2023-01-28T03:33:36;98813.09;;;4.64;55.50
60240;BME280;46102;39.012;-7.064;2023-01-28T03:35:55;98803.59;;;4.56;55.51
60240;BME280;46102;39.012;-7.064;2023-01-28T03:38:16;98806.59;;;4.54;55.19
60240;BME280;46102;39.012;-7.064;2023-01-28T03:40:21;98817.19;;;4.46;55.81
60240;BME280;46102;39.012;-7.064;2023-01-28T03:42:22;98825.63;;;4.44;55.56
60240;BME280;46102;39.012;-7.064;2023-01-28T03:44:45;98819.63;;;4.37;56.50
60240;BME280;46102;39.012;-7.064;2023-01-28T03:46:53;98825.63;;;4.39;56.38
60240;BME280;46102;39.012;-7.064;2023-01-28T03:48:53;98821.81;;;4.45;55.57
60240;BME280;46102;39.012;-7.064;2023-01-28T03:50:55;98817.19;;;4.41;55.66
60240;BME280;46102;39.012;-7.064;2023-01-28T03:52:57;98831.34;;;4.53;56.24
60240;BME280;46102;39.012;-7.064;2023-01-28T03:55:23;98825.63;;;4.49;56.10
60240;BME280;46102;39.012;-7.064;2023-01-28T03:57:26;98820.19;;;4.59;55.27
60240;BME280;46102;39.012;-7.064;2023-01-28T03:59:28;98819.38;;;4.64;55.71
60240;BME280;46102;39.012;-7.064;2023-01-28T04:01:29;98808.50;;;4.59;55.79
60240;BME280;46102;39.012;-7.064;2023-01-28T04:03:30;98821.00;;;4.50;55.79
60240;BME280;46102;39.012;-7.064;2023-01-28T04:05:33;98811.22;;;4.59;55.89
60240;BME280;46102;39.012;-7.064;2023-01-28T04:07:34;98803.88;;;4.54;55.69
60240;BME280;46102;39.012;-7.064;2023-01-28T04:09:51;98806.06;;;4.57;55.86
60240;BME280;46102;39.012;-7.064;2023-01-28T04:12:12;98806.06;;;4.63;55.67
60240;BME280;46102;39.012;-7.064;2023-01-28T04:14:20;98803.88;;;4.70;54.92
60240;BME280;46102;39.012;-7.064;2023-01-28T04:16:27;98802.50;;;4.72;55.32
60240;BME280;46102;39.012;-7.064;2023-01-28T04:18:28;98807.97;;;4.67;55.17
60240;BME280;46102;39.012;-7.064;2023-01-28T04:20:31;98814.75;;;4.65;55.06
60240;BME280;46102;39.012;-7.064;2023-01-28T04:22:33;98810.94;;;4.61;55.42
60240;BME280;46102;39.012;-7.064;2023-01-28T04:24:35;98807.69;;;4.69;55.67
60240;BME280;46102;39.012;-7.064;2023-01-28T04:26:36;98810.38;;;4.79;55.13
60240;BME280;46102;39.012;-7.064;2023-01-28T04:28:38;98812.84;;;4.86;54.59
60240;BME280;46102;39.012;-7.064;2023-01-28T04:30:39;98812.31;;;4.78;54.78
60240;BME280;46102;39.012;-7.064;2023-01-28T04:32:58;98818.03;;;4.82;54.94
60240;BME280;46102;39.012;-7.064;2023-01-28T04:35:09;98813.91;;;4.79;54.80
60240;BME280;46102;39.012;-7.064;2023-01-28T04:37:28;98810.13;;;4.75;54.98
60240;BME280;46102;39.012;-7.064;2023-01-28T04:39:43;98812.56;;;4.72;55.07
60240;BME280;46102;39.012;-7.064;2023-01-28T04:41:53;98810.69;;;4.77;55.65
60240;BME280;46102;39.012;-7.064;2023-01-28T04:44:02;98804.97;;;4.84;55.28
60240;BME280;46102;39.012;-7.064;2023-01-28T04:46:15;98800.88;;;4.82;55.59
60240;BME280;46102;39.012;-7.064;2023-01-28T04:48:37;98802.78;;;4.86;55.50
60240;BME280;46102;39.012;-7.064;2023-01-28T04:50:53;98803.03;;;4.79;55.04
60240;BME280;46102;39.012;-7.064;2023-01-28T04:53:14;98814.22;;;4.73;55.53
60240;BME280;46102;39.012;-7.064;2023-01-28T04:55:31;98809.03;;;4.76;55.25
60240;BME280;46102;39.012;-7.064;2023-01-28T04:57:33;98805.50;;;4.81;55.26
60240;BME280;46102;39.012;-7.064;2023-01-28T04:59:34;98807.97;;;4.83;55.84
60240;BME280;46102;39.012;-7.064;2023-01-28T05:01:35;98818.81;;;4.83;55.75
60240;BME280;46102;39.012;-7.064;2023-01-28T05:03:37;98818.28;;;4.75;55.89
60240;BME280;46102;39.012;-7.064;2023-01-28T05:05:41;98834.31;;;4.77;55.93
60240;BME280;46102;39.012;-7.064;2023-01-28T05:08:00;98838.94;;;4.71;55.45
60240;BME280;46102;39.012;-7.064;2023-01-28T05:10:01;98832.97;;;4.69;55.73
60240;BME280;46102;39.012;-7.064;2023-01-28T05:12:02;98834.03;;;4.68;55.67
60240;BME280;46102;39.012;-7.064;2023-01-28T05:14:05;98823.44;;;4.77;56.14
60240;BME280;46102;39.012;-7.064;2023-01-28T05:16:15;98831.59;;;4.72;55.81
60240;BME280;46102;39.012;-7.064;2023-01-28T05:18:16;98830.50;;;4.68;55.88
60240;BME280;46102;39.012;-7.064;2023-01-28T05:20:23;98840.31;;;4.74;55.60
60240;BME280;46102;39.012;-7.064;2023-01-28T05:22:24;98843.56;;;4.66;55.58
60240;BME280;46102;39.012;-7.064;2023-01-28T05:24:46;98834.88;;;4.69;56.60
60240;BME280;46102;39.012;-7.064;2023-01-28T05:26:48;98830.50;;;4.63;56.31
60240;BME280;46102;39.012;-7.064;2023-01-28T05:28:48;98827.81;;;4.63;56.87
60240;BME280;46102;39.012;-7.064;2023-01-28T05:30:50;98821.25;;;4.64;56.90
60240;BME280;46102;39.012;-7.064;2023-01-28T05:32:55;98812.31;;;4.63;56.13
60240;BME280;46102;39.012;-7.064;2023-01-28T05:34:57;98814.19;;;4.52;56.54
60240;BME280;46102;39.012;-7.064;2023-01-28T05:36:58;98812.31;;;4.53;56.75
60240;BME280;46102;39.012;-7.064;2023-01-28T05:39:04;98821.00;;;4.45;56.97
60240;BME280;46102;39.012;-7.064;2023-01-28T05:41:06;98833.47;;;4.41;57.11
60240;BME280;46102;39.012;-7.064;2023-01-28T05:43:07;98825.31;;;4.46;57.25
60240;BME280;46102;39.012;-7.064;2023-01-28T05:45:12;98837.03;;;4.46;57.34
60240;BME280;46102;39.012;-7.064;2023-01-28T05:47:35;98843.00;;;4.38;57.05
60240;BME280;46102;39.012;-7.064;2023-01-28T05:49:48;98836.75;;;4.37;57.26
60240;BME280;46102;39.012;-7.064;2023-01-28T05:52:09;98838.91;;;4.35;57.70
60240;BME280;46102;39.012;-7.064;2023-01-28T05:54:11;98834.84;;;4.33;57.57
60240;BME280;46102;39.012;-7.064;2023-01-28T05:56:12;98836.75;;;4.32;57.21
60240;BME280;46102;39.012;-7.064;2023-01-28T05:58:14;98833.47;;;4.35;57.17
60240;BME280;46102;39.012;-7.064;2023-01-28T06:00:16;98842.19;;;4.37;57.53
60240;BME280;46102;39.012;-7.064;2023-01-28T06:02:19;98835.09;;;4.31;57.47
60240;BME280;46102;39.012;-7.064;2023-01-28T06:04:20;98843.00;;;4.33;57.82
60240;BME280;46102;39.012;-7.064;2023-01-28T06:06:21;98845.97;;;4.26;57.66
60240;BME280;46102;39.012;-7.064;2023-01-28T06:08:22;98842.44;;;4.26;57.64
60240;BME280;46102;39.012;-7.064;2023-01-28T06:10:23;98845.16;;;4.26;57.74
60240;BME280;46102;39.012;-7.064;2023-01-28T06:12:24;98833.19;;;4.22;58.02
60240;BME280;46102;39.012;-7.064;2023-01-28T06:14:44;98833.44;;;4.25;57.67
60240;BME280;46102;39.012;-7.064;2023-01-28T06:17:09;98826.66;;;4.28;57.37
60240;BME280;46102;39.012;-7.064;2023-01-28T06:19:34;98831.56;;;4.36;56.84
60240;BME280;46102;39.012;-7.064;2023-01-28T06:21:35;98830.75;;;4.46;56.23
60240;BME280;46102;39.012;-7.064;2023-01-28T06:23:36;98843.25;;;4.36;56.75
60240;BME280;46102;39.012;-7.064;2023-01-28T06:25:41;98839.47;;;4.32;56.59
60240;BME280;46102;39.012;-7.064;2023-01-28T06:27:45;98837.28;;;4.40;56.39
60240;BME280;46102;39.012;-7.064;2023-01-28T06:29:46;98843.25;;;4.36;56.33
60240;BME280;46102;39.012;-7.064;2023-01-28T06:31:47;98843.28;;;4.42;56.13
60240;BME280;46102;39.012;-7.064;2023-01-28T06:33:47;98851.69;;;4.40;56.88
60240;BME280;46102;39.012;-7.064;2023-01-28T06:35:48;98860.38;;;4.37;56.46
60240;BME280;46102;39.012;-7.064;2023-01-28T06:37:49;98859.28;;;4.38;56.57
60240;BME280;46102;39.012;-7.064;2023-01-28T06:39:51;98859.59;;;4.42;57.16
60240;BME280;46102;39.012;-7.064;2023-01-28T06:41:53;98856.28;;;4.34;56.71
60240;BME280;46102;39.012;-7.064;2023-01-28T06:43:54;98855.22;;;4.30;56.68
60240;BME280;46102;39.012;-7.064;2023-01-28T06:45:58;98851.09;;;4.28;57.44
60240;BME280;46102;39.012;-7.064;2023-01-28T06:47:59;98845.97;;;4.26;57.24
60240;BME280;46102;39.012;-7.064;2023-01-28T06:50:00;98852.22;;;4.27;57.20
60240;BME280;46102;39.012;-7.064;2023-01-28T06:52:01;98859.81;;;4.30;56.90
60240;BME280;46102;39.012;-7.064;2023-01-28T06:54:01;98862.78;;;4.23;57.60
60240;BME280;46102;39.012;-7.064;2023-01-28T06:56:02;98865.22;;;4.14;57.23
60240;BME280;46102;39.012;-7.064;2023-01-28T06:58:03;98864.41;;;4.19;57.43
60240;BME280;46102;39.012;-7.064;2023-01-28T07:00:06;98860.06;;;4.23;56.96
60240;BME280;46102;39.012;-7.064;2023-01-28T07:02:09;98854.09;;;4.21;57.52
60240;BME280;46102;39.012;-7.064;2023-01-28T07:04:10;98845.94;;;4.16;57.45
60240;BME280;46102;39.012;-7.064;2023-01-28T07:06:11;98853.56;;;4.19;57.37
60240;BME280;46102;39.012;-7.064;2023-01-28T07:08:12;98859.78;;;4.20;57.29
60240;BME280;46102;39.012;-7.064;2023-01-28T07:10:13;98861.72;;;4.24;56.96
60240;BME280;46102;39.012;-7.064;2023-01-28T07:12:13;98861.97;;;4.17;57.02
60240;BME280;46102;39.012;-7.064;2023-01-28T07:14:15;98867.69;;;4.21;57.25
60240;BME280;46102;39.012;-7.064;2023-01-28T07:16:16;98873.38;;;4.20;57.67
60240;BME280;46102;39.012;-7.064;2023-01-28T07:18:17;98877.44;;;4.17;57.61
60240;BME280;46102;39.012;-7.064;2023-01-28T07:20:17;98878.25;;;4.23;57.73
60240;BME280;46102;39.012;-7.064;2023-01-28T07:22:18;98875.84;;;4.21;56.80
60240;BME280;46102;39.012;-7.064;2023-01-28T07:24:19;98876.91;;;4.20;57.64
60240;BME280;46102;39.012;-7.064;2023-01-28T07:26:20;98879.63;;;4.25;56.71
60240;BME280;46102;39.012;-7.064;2023-01-28T07:28:20;98883.97;;;4.21;56.77
60240;BME280;46102;39.012;-7.064;2023-01-28T07:30:21;98892.66;;;4.18;56.72
60240;BME280;46102;39.012;-7.064;2023-01-28T07:32:23;98886.16;;;4.24;56.71
60240;BME280;46102;39.012;-7.064;2023-01-28T07:34:26;98893.75;;;4.27;56.57
60240;BME280;46102;39.012;-7.064;2023-01-28T07:36:27;98889.13;;;4.23;57.43
60240;BME280;46102;39.012;-7.064;2023-01-28T07:38:28;98885.06;;;4.20;57.29
60240;BME280;46102;39.012;-7.064;2023-01-28T07:40:29;98909.50;;;4.20;57.41
60240;BME280;46102;39.012;-7.064;2023-01-28T07:42:30;98898.38;;;4.22;56.78
60240;BME280;46102;39.012;-7.064;2023-01-28T07:44:36;98907.63;;;4.31;57.07
60240;BME280;46102;39.012;-7.064;2023-01-28T07:46:38;98910.59;;;4.29;56.71
60240;BME280;46102;39.012;-7.064;2023-01-28T07:48:38;98909.00;;;4.28;57.06
60240;BME280;46102;39.012;-7.064;2023-01-28T07:50:39;98911.41;;;4.25;57.00
60240;BME280;46102;39.012;-7.064;2023-01-28T07:52:40;98907.06;;;4.24;57.24
60240;BME280;46102;39.012;-7.064;2023-01-28T07:54:43;98915.78;;;4.26;56.94
60240;BME280;46102;39.012;-7.064;2023-01-28T07:56:44;98912.00;;;4.37;56.64
60240;BME280;46102;39.012;-7.064;2023-01-28T07:58:48;98913.63;;;4.38;56.71
60240;BME280;46102;39.012;-7.064;2023-01-28T08:00:49;98912.25;;;4.41;57.11
60240;BME280;46102;39.012;-7.064;2023-01-28T08:02:57;98915.81;;;4.46;56.37
60240;BME280;46102;39.012;-7.064;2023-01-28T08:04:58;98922.06;;;4.57;55.61
60240;BME280;46102;39.012;-7.064;2023-01-28T08:07:00;98921.31;;;4.67;55.76
60240;BME280;46102;39.012;-7.064;2023-01-28T08:09:01;98920.22;;;4.78;55.38
60240;BME280;46102;39.012;-7.064;2023-01-28T08:11:08;98925.13;;;4.81;54.88
60240;BME280;46102;39.012;-7.064;2023-01-28T08:13:11;98919.41;;;4.93;55.21
60240;BME280;46102;39.012;-7.064;2023-01-28T08:15:12;98912.34;;;5.12;54.04
60240;BME280;46102;39.012;-7.064;2023-01-28T08:17:13;98916.97;;;5.22;53.87
60240;BME280;46102;39.012;-7.064;2023-01-28T08:19:13;98922.41;;;5.32;53.39
60240;BME280;46102;39.012;-7.064;2023-01-28T08:21:14;98924.03;;;5.43;52.85
60240;BME280;46102;39.012;-7.064;2023-01-28T08:23:17;98927.25;;;5.61;52.33
60240;BME280;46102;39.012;-7.064;2023-01-28T08:25:18;98919.59;;;5.73;52.01
60240;BME280;46102;39.012;-7.064;2023-01-28T08:27:19;98924.22;;;5.78;51.69
60240;BME280;46102;39.012;-7.064;2023-01-28T08:29:20;98916.56;;;5.95;51.18
60240;BME280;46102;39.012;-7.064;2023-01-28T08:31:21;98924.97;;;6.09;51.14
60240;BME280;46102;39.012;-7.064;2023-01-28T08:33:21;98916.97;;;6.28;50.59
60240;BME280;46102;39.012;-7.064;2023-01-28T08:35:23;98920.41;;;6.49;49.98
60240;BME280;46102;39.012;-7.064;2023-01-28T08:37:24;98927.69;;;6.64;49.53
60240;BME280;46102;39.012;-7.064;2023-01-28T08:39:25;98923.78;;;6.80;49.22
60240;BME280;46102;39.012;-7.064;2023-01-28T08:41:26;98927.47;;;6.95;48.71
60240;BME280;46102;39.012;-7.064;2023-01-28T08:43:27;98926.78;;;7.13;48.49
60240;BME280;46102;39.012;-7.064;2023-01-28T08:45:28;98925.75;;;7.38;48.26
60240;BME280;46102;39.012;-7.064;2023-01-28T08:47:29;98920.72;;;7.80;46.66
60240;BME280;46102;39.012;-7.064;2023-01-28T08:49:30;98910.69;;;8.18;45.29
60240;BME280;46102;39.012;-7.064;2023-01-28T08:51:31;98923.28;;;8.38;45.14
60240;BME280;46102;39.012;-7.064;2023-01-28T08:53:31;98926.88;;;8.58;45.18
60240;BME280;46102;39.012;-7.064;2023-01-28T08:55:33;98922.31;;;8.72;44.70
60240;BME280;46102;39.012;-7.064;2023-01-28T08:57:34;98919.63;;;8.86;43.90
60240;BME280;46102;39.012;-7.064;2023-01-28T08:59:34;98915.72;;;8.92;43.94
60240;BME280;46102;39.012;-7.064;2023-01-28T09:01:35;98920.81;;;8.99;43.54
60240;BME280;46102;39.012;-7.064;2023-01-28T09:03:36;98931.16;;;9.02;43.84
60240;BME280;46102;39.012;-7.064;2023-01-28T09:05:37;98927.44;;;9.11;43.43
60240;BME280;46102;39.012;-7.064;2023-01-28T09:07:38;98922.56;;;9.08;43.22
60240;BME280;46102;39.012;-7.064;2023-01-28T09:09:39;98924.94;;;9.15;43.45
60240;BME280;46102;39.012;-7.064;2023-01-28T09:11:39;98926.38;;;9.26;43.49
60240;BME280;46102;39.012;-7.064;2023-01-28T09:13:41;98914.75;;;9.34;43.00
60240;BME280;46102;39.012;-7.064;2023-01-28T09:15:42;98923.69;;;9.40;43.10
60240;BME280;46102;39.012;-7.064;2023-01-28T09:17:43;98918.75;;;9.56;42.19
60240;BME280;46102;39.012;-7.064;2023-01-28T09:19:44;98922.63;;;9.69;41.99
60240;BME280;46102;39.012;-7.064;2023-01-28T09:21:44;98918.69;;;9.75;41.40
60240;BME280;46102;39.012;-7.064;2023-01-28T09:23:45;98923.56;;;9.78;41.56
60240;BME280;46102;39.012;-7.064;2023-01-28T09:25:46;98915.84;;;9.94;41.72
60240;BME280;46102;39.012;-7.064;2023-01-28T09:27:47;98908.81;;;10.15;41.01
60240;BME280;46102;39.012;-7.064;2023-01-28T09:29:48;98918.41;;;10.32;40.80
60240;BME280;46102;39.012;-7.064;2023-01-28T09:31:48;98924.97;;;10.45;39.97
60240;BME280;46102;39.012;-7.064;2023-01-28T09:33:49;98928.94;;;10.52;40.04
60240;BME280;46102;39.012;-7.064;2023-01-28T09:35:58;98929.13;;;10.56;39.74
60240;BME280;46102;39.012;-7.064;2023-01-28T09:38:00;98939.97;;;10.75;39.26
60240;BME280;46102;39.012;-7.064;2023-01-28T09:40:01;98935.28;;;10.75;39.19
60240;BME280;46102;39.012;-7.064;2023-01-28T09:45:00;98951.34;;;10.82;38.69
60240;BME280;46102;39.012;-7.064;2023-01-28T09:47:07;98950.09;;;10.88;38.37
60240;BME280;46102;39.012;-7.064;2023-01-28T09:49:22;98949.47;;;10.91;38.17
60240;BME280;46102;39.012;-7.064;2023-01-28T09:51:40;98942.50;;;11.08;38.19
60240;BME280;46102;39.012;-7.064;2023-01-28T09:53:44;98945.16;;;11.35;37.26
60240;BME280;46102;39.012;-7.064;2023-01-28T09:55:53;98947.31;;;11.24;37.67
60240;BME280;46102;39.012;-7.064;2023-01-28T09:57:55;98941.31;;;11.22;37.91
60240;BME280;46102;39.012;-7.064;2023-01-28T09:59:57;98942.84;;;11.29;37.72
60240;BME280;46102;39.012;-7.064;2023-01-28T10:04:17;98944.56;;;11.47;37.52
60240;BME280;46102;39.012;-7.064;2023-01-28T10:06:45;98955.03;;;11.67;37.23
60240;BME280;46102;39.012;-7.064;2023-01-28T10:15:40;98955.44;;;11.83;36.18
60240;BME280;46102;39.012;-7.064;2023-01-28T10:17:51;98960.53;;;11.90;36.13
60240;BME280;46102;39.012;-7.064;2023-01-28T10:20:05;98958.69;;;11.85;36.71
60240;BME280;46102;39.012;-7.064;2023-01-28T10:22:29;98958.50;;;12.13;36.84
60240;BME280;46102;39.012;-7.064;2023-01-28T10:24:40;98960.72;;;12.42;36.46
60240;BME280;46102;39.012;-7.064;2023-01-28T10:26:44;98961.91;;;12.76;35.68
60240;BME280;46102;39.012;-7.064;2023-01-28T10:28:47;98961.63;;;12.95;35.12
60240;BME280;46102;39.012;-7.064;2023-01-28T10:30:52;98954.69;;;13.15;34.73
60240;BME280;46102;39.012;-7.064;2023-01-28T10:35:00;98957.13;;;13.34;34.14
60240;BME280;46102;39.012;-7.064;2023-01-28T10:37:02;98962.81;;;13.29;34.20
60240;BME280;46102;39.012;-7.064;2023-01-28T10:39:03;98958.56;;;13.40;33.86
60240;BME280;46102;39.012;-7.064;2023-01-28T10:41:09;98962.25;;;13.62;33.82
60240;BME280;46102;39.012;-7.064;2023-01-28T10:43:13;98970.00;;;13.86;33.15
60240;BME280;46102;39.012;-7.064;2023-01-28T10:45:25;98968.41;;;13.76;32.87
60240;BME280;46102;39.012;-7.064;2023-01-28T10:47:47;98972.28;;;13.66;33.01
60240;BME280;46102;39.012;-7.064;2023-01-28T10:49:53;98978.00;;;13.52;33.60
60240;BME280;46102;39.012;-7.064;2023-01-28T10:51:55;98973.91;;;13.76;33.45
60240;BME280;46102;39.012;-7.064;2023-01-28T10:53:58;98974.81;;;13.98;32.88
60240;BME280;46102;39.012;-7.064;2023-01-28T10:55:59;98975.09;;;14.13;32.18
60240;BME280;46102;39.012;-7.064;2023-01-28T10:58:03;98974.41;;;14.25;32.00
60240;BME280;46102;39.012;-7.064;2023-01-28T11:02:31;98973.69;;;14.37;32.05
60240;BME280;46102;39.012;-7.064;2023-01-28T11:04:34;98981.63;;;14.38;32.25
60240;BME280;46102;39.012;-7.064;2023-01-28T11:06:35;98977.22;;;14.55;31.38
60240;BME280;46102;39.012;-7.064;2023-01-28T11:08:43;98971.34;;;14.56;31.42
60240;BME280;46102;39.012;-7.064;2023-01-28T11:10:46;98976.00;;;14.65;31.62
60240;BME280;46102;39.012;-7.064;2023-01-28T11:12:54;98976.03;;;14.86;31.01
60240;BME280;46102;39.012;-7.064;2023-01-28T11:14:56;98971.56;;;15.02;30.70
60240;BME280;46102;39.012;-7.064;2023-01-28T11:16:57;98978.13;;;15.10;30.85
60240;BME280;46102;39.012;-7.064;2023-01-28T11:19:03;98974.16;;;15.19;30.90
60240;BME280;46102;39.012;-7.064;2023-01-28T11:21:15;98982.31;;;15.37;30.20
60240;BME280;46102;39.012;-7.064;2023-01-28T11:23:21;98976.56;;;15.42;29.91
60240;BME280;46102;39.012;-7.064;2023-01-28T11:25:31;98970.63;;;15.52;29.95
60240;BME280;46102;39.012;-7.064;2023-01-28T11:27:33;98968.19;;;15.51;29.88
60240;BME280;46102;39.012;-7.064;2023-01-28T11:29:38;98970.31;;;15.33;29.71
60240;BME280;46102;39.012;-7.064;2023-01-28T11:31:43;98962.06;;;15.45;29.12
60240;BME280;46102;39.012;-7.064;2023-01-28T11:33:51;98960.34;;;15.40;29.21
60240;BME280;46102;39.012;-7.064;2023-01-28T11:36:03;98957.66;;;15.32;29.42
60240;BME280;46102;39.012;-7.064;2023-01-28T11:38:17;98963.81;;;15.50;28.94
60240;BME280;46102;39.012;-7.064;2023-01-28T11:40:18;98964.66;;;15.62;28.48